Time,TemperatureF,DewpointF,PressureIn,WindDirection,WindDirectionDegrees,WindSpeedMPH,WindSpeedGustMPH,Humidity,HourlyPrecipIn,Conditions,Clouds,dailyrainin,SoftwareType,DateUTC
2013-05-13 08:35:00,55.2,47.0,29.81,NNW,338,2.0,2.0,74,0.00,,,0.00,WUHU216HW,2013-05-13 06:35:00,
2013-05-13 08:40:00,55.9,47.3,29.81,NW,315,12.9,14.3,73,0.00,,,0.00,WUHU216HW,2013-05-13 06:40:00,
2013-05-13 08:45:00,56.1,47.1,29.81,NNW,338,6.7,14.3,72,0.00,,,0.00,WUHU216HW,2013-05-13 06:45:00,
2013-05-13 08:50:00,56.3,47.3,29.82,NW,315,8.9,13.6,72,0.00,,,0.00,WUHU216HW,2013-05-13 06:50:00,
2013-05-13 08:55:00,55.9,46.6,29.83,North,0,9.1,19.0,71,0.00,,,0.00,WUHU216HW,2013-05-13 06:55:00,
2013-05-13 09:00:00,55.7,46.5,29.84,WNW,293,4.4,19.0,71,0.00,,,0.00,WUHU216HW,2013-05-13 07:00:00,
2013-05-13 09:05:00,55.5,46.7,29.84,WSW,248,5.1,15.8,71,0.00,,,0.00,WUHU216HW,2013-05-13 07:05:00,
2013-05-13 09:10:00,55.2,46.0,29.84,WNW,293,7.8,15.6,71,0.00,,,0.00,WUHU216HW,2013-05-13 07:10:00,
2013-05-13 09:15:00,55.2,46.3,29.85,North,0,3.5,15.6,72,0.00,,,0.00,WUHU216HW,2013-05-13 07:15:00,
2013-05-13 09:20:00,55.2,46.0,29.85,NW,315,14.5,14.5,71,0.00,,,0.00,WUHU216HW,2013-05-13 07:20:00,
2013-05-13 09:25:00,55.0,46.1,29.85,NW,315,6.4,14.7,72,0.00,,,0.00,WUHU216HW,2013-05-13 07:25:00,
2013-05-13 09:30:00,55.0,45.8,29.85,NW,315,13.8,15.4,71,0.00,,,0.00,WUHU216HW,2013-05-13 07:30:00,
2013-05-13 09:35:00,54.6,45.8,29.85,North,0,7.6,19.2,72,0.00,,,0.00,WUHU216HW,2013-05-13 07:35:00,
2013-05-13 09:40:00,54.5,45.6,29.86,NW,315,14.3,21.0,72,0.00,,,0.00,WUHU216HW,2013-05-13 07:40:00,
2013-05-13 09:45:00,54.5,45.6,29.86,NW,315,4.0,21.0,72,0.00,,,0.00,WUHU216HW,2013-05-13 07:45:00,
2013-05-13 09:51:00,54.5,45.6,29.86,NNW,338,14.9,21.0,72,0.00,,,0.00,WUHU216HW,2013-05-13 07:51:00,
2013-05-13 09:56:00,54.5,45.6,29.85,North,0,13.1,14.9,72,0.00,,,0.00,WUHU216HW,2013-05-13 07:56:00,
2013-05-13 10:01:00,54.3,45.4,29.86,WNW,293,10.5,18.3,72,0.00,,,0.00,WUHU216HW,2013-05-13 08:01:00,
2013-05-13 10:06:00,54.5,45.6,29.86,NNW,338,6.2,20.5,72,0.00,,,0.00,WUHU216HW,2013-05-13 08:06:00,
2013-05-13 10:11:00,54.5,45.6,29.86,NNW,338,5.8,20.5,72,0.00,,,0.00,WUHU216HW,2013-05-13 08:11:00,
2013-05-13 10:16:00,54.6,45.8,29.86,WNW,293,3.8,14.9,72,0.00,,,0.00,WUHU216HW,2013-05-13 08:16:00,
2013-05-13 10:21:00,54.8,46.0,29.86,NNE,23,8.2,19.4,72,0.00,,,0.00,WUHU216HW,2013-05-13 08:21:00,
2013-05-13 10:26:00,55.0,45.8,29.86,NNW,338,9.6,19.4,71,0.00,,,0.00,WUHU216HW,2013-05-13 08:26:00,
2013-05-13 10:31:00,55.2,46.0,29.86,NW,315,11.1,19.2,71,0.00,,,0.00,WUHU216HW,2013-05-13 08:31:00,
2013-05-13 10:36:00,55.2,46.0,29.86,NW,315,13.1,19.2,71,0.00,,,0.00,WUHU216HW,2013-05-13 08:36:00,
2013-05-13 10:41:00,55.2,46.0,29.87,WNW,293,11.1,13.4,71,0.00,,,0.00,WUHU216HW,2013-05-13 08:41:00,
2013-05-13 10:46:00,55.5,46.3,29.87,North,0,8.7,13.4,71,0.00,,,0.00,WUHU216HW,2013-05-13 08:46:00,
2013-05-13 10:51:00,55.7,46.1,29.86,WNW,293,4.4,11.8,70,0.00,,,0.00,WUHU216HW,2013-05-13 08:51:00,
2013-05-13 10:56:00,56.1,46.5,29.86,NNW,338,5.3,11.8,70,0.00,,,0.00,WUHU216HW,2013-05-13 08:56:00,
2013-05-13 11:01:00,56.3,46.6,29.86,North,0,7.3,19.4,70,0.00,,,0.00,WUHU216HW,2013-05-13 09:01:00,
2013-05-13 11:06:00,56.4,46.8,29.86,NNW,338,21.6,21.6,70,0.00,,,0.00,WUHU216HW,2013-05-13 09:06:00,
2013-05-13 11:11:00,56.4,46.2,29.87,NNW,338,6.2,21.6,69,0.00,,,0.00,WUHU216HW,2013-05-13 09:11:00,
2013-05-13 11:16:00,56.4,46.4,29.86,North,0,12.5,23.4,69,0.00,,,0.00,WUHU216HW,2013-05-13 09:16:00,
2013-05-13 11:21:00,56.4,46.0,29.86,NNW,338,14.5,23.4,68,0.00,,,0.00,WUHU216HW,2013-05-13 09:21:00,
2013-05-13 11:26:00,56.8,46.4,29.86,NNW,338,11.4,23.7,69,0.00,,,0.00,WUHU216HW,2013-05-13 09:26:00,
2013-05-13 11:35:00,57.0,46.5,29.87,NNE,23,8.0,21.2,68,0.00,,,0.00,WUHU216HW,2013-05-13 09:35:00,
2013-05-13 11:40:00,57.7,47.2,29.87,NNW,338,12.7,13.8,68,0.00,,,0.00,WUHU216HW,2013-05-13 09:40:00,
2013-05-13 11:45:00,57.7,46.8,29.87,NNW,338,11.8,21.0,67,0.00,,,0.00,WUHU216HW,2013-05-13 09:45:00,
2013-05-13 11:50:00,57.3,46.4,29.88,West,270,6.0,21.0,67,0.00,,,0.00,WUHU216HW,2013-05-13 09:50:00,
2013-05-13 11:55:00,57.5,46.4,29.88,North,0,12.9,16.7,67,0.00,,,0.00,WUHU216HW,2013-05-13 09:55:00,
2013-05-13 12:00:00,57.5,46.6,29.88,North,0,8.9,12.9,67,0.00,,,0.00,WUHU216HW,2013-05-13 10:00:00,
2013-05-13 12:05:00,57.5,46.6,29.88,NNW,338,4.6,16.5,67,0.00,,,0.00,WUHU216HW,2013-05-13 10:05:00,
2013-05-13 12:10:00,57.5,46.6,29.89,WNW,293,9.3,16.5,67,0.00,,,0.00,WUHU216HW,2013-05-13 10:10:00,
2013-05-13 12:15:00,57.3,46.4,29.89,NNW,338,8.2,16.1,67,0.00,,,0.00,WUHU216HW,2013-05-13 10:15:00,
2013-05-13 12:20:00,57.3,46.4,29.88,NNW,338,3.3,14.9,67,0.00,,,0.00,WUHU216HW,2013-05-13 10:20:00,
2013-05-13 12:25:00,57.5,46.6,29.89,West,270,8.9,20.5,67,0.00,,,0.00,WUHU216HW,2013-05-13 10:25:00,
2013-05-13 12:30:00,57.3,46.4,29.89,NW,315,4.0,20.5,67,0.00,,,0.00,WUHU216HW,2013-05-13 10:30:00,
2013-05-13 12:35:00,57.5,46.6,29.89,NNW,338,11.1,14.3,67,0.00,,,0.00,WUHU216HW,2013-05-13 10:35:00,
2013-05-13 12:40:00,57.5,46.2,29.89,NNW,338,5.1,15.8,67,0.00,,,0.00,WUHU216HW,2013-05-13 10:40:00,
2013-05-13 12:45:00,57.7,46.8,29.90,North,0,6.4,15.8,67,0.00,,,0.00,WUHU216HW,2013-05-13 10:45:00,
2013-05-13 12:50:00,57.5,46.2,29.90,NW,315,15.4,15.4,66,0.00,,,0.00,WUHU216HW,2013-05-13 10:50:00,
2013-05-13 12:55:00,57.0,46.1,29.90,ENE,68,6.4,15.4,67,0.00,,,0.00,WUHU216HW,2013-05-13 10:55:00,
2013-05-13 13:00:00,57.0,46.1,29.90,North,0,2.9,11.4,67,0.00,,,0.00,WUHU216HW,2013-05-13 11:00:00,
2013-05-13 13:05:00,57.0,46.1,29.90,North,0,3.5,11.4,67,0.00,,,0.00,WUHU216HW,2013-05-13 11:05:00,
2013-05-13 13:10:00,57.0,45.7,29.90,WNW,293,2.2,10.7,66,0.00,,,0.00,WUHU216HW,2013-05-13 11:10:00,
2013-05-13 13:15:00,57.3,46.0,29.90,NNW,338,7.3,15.4,66,0.00,,,0.00,WUHU216HW,2013-05-13 11:15:00,
2013-05-13 13:20:00,57.7,46.4,29.90,WNW,293,6.7,15.4,66,0.00,,,0.00,WUHU216HW,2013-05-13 11:20:00,
2013-05-13 13:25:00,58.1,46.7,29.90,West,270,3.8,11.6,66,0.00,,,0.00,WUHU216HW,2013-05-13 11:25:00,
2013-05-13 13:30:00,58.6,46.8,29.90,North,0,4.9,12.0,65,0.00,,,0.00,WUHU216HW,2013-05-13 11:30:00,
2013-05-13 13:35:00,58.8,46.6,29.90,North,0,20.1,20.1,64,0.00,,,0.00,WUHU216HW,2013-05-13 11:35:00,
2013-05-13 13:40:00,58.2,45.6,29.90,NW,315,19.4,20.1,63,0.00,,,0.00,WUHU216HW,2013-05-13 11:40:00,
2013-05-13 13:45:00,58.8,46.6,29.90,NNE,23,1.1,19.4,64,0.00,,,0.00,WUHU216HW,2013-05-13 11:45:00,
2013-05-13 13:50:00,59.7,46.6,29.90,NW,315,3.8,17.6,62,0.00,,,0.00,WUHU216HW,2013-05-13 11:50:00,
2013-05-13 13:55:00,60.0,46.6,29.90,NNW,338,18.7,18.7,61,0.00,,,0.00,WUHU216HW,2013-05-13 11:55:00,
2013-05-13 14:00:00,61.3,47.6,29.90,West,270,9.1,18.7,61,0.00,,,0.00,WUHU216HW,2013-05-13 12:00:00,
2013-05-13 14:05:00,61.8,48.0,29.91,West,270,12.0,18.3,61,0.00,,,0.00,WUHU216HW,2013-05-13 12:05:00,
2013-05-13 14:10:00,62.2,47.5,29.91,NNW,338,20.8,20.8,59,0.00,,,0.00,WUHU216HW,2013-05-13 12:10:00,
2013-05-13 14:15:00,60.4,46.5,29.91,NNE,23,5.1,20.8,60,0.00,,,0.00,WUHU216HW,2013-05-13 12:15:00,
2013-05-13 14:20:00,59.7,46.2,29.91,NW,315,6.7,11.6,61,0.00,,,0.00,WUHU216HW,2013-05-13 12:20:00,
2013-05-13 14:25:00,59.5,45.8,29.92,NW,315,6.9,11.4,61,0.00,,,0.00,WUHU216HW,2013-05-13 12:25:00,
2013-05-13 14:30:00,59.5,46.0,29.92,SSW,203,1.7,9.1,61,0.00,,,0.00,WUHU216HW,2013-05-13 12:30:00,
2013-05-13 14:35:00,59.5,46.0,29.94,NW,315,7.6,9.6,61,0.00,,,0.00,WUHU216HW,2013-05-13 12:35:00,
2013-05-13 14:41:00,59.5,46.0,29.94,NNW,338,2.4,13.1,61,0.00,,,0.00,WUHU216HW,2013-05-13 12:41:00,
2013-05-13 14:46:00,59.9,46.0,29.94,NNW,338,8.9,13.1,60,0.00,,,0.00,WUHU216HW,2013-05-13 12:46:00,
2013-05-13 15:11:00,59.9,46.0,29.91,NW,315,6.0,6.0,60,0.00,,,0.00,WUHU216HW,2013-05-13 13:11:00,
2013-05-13 17:18:00,58.8,44.0,29.87,North,0,2.0,2.0,58,0.00,,,0.00,WUHU216HW,2013-05-13 15:18:00,
2013-05-13 17:23:00,59.0,44.6,29.87,NNW,338,6.2,7.6,59,0.00,,,0.00,WUHU216HW,2013-05-13 15:23:00,
2013-05-13 17:28:00,59.3,44.5,29.88,NW,315,3.5,10.2,58,0.00,,,0.00,WUHU216HW,2013-05-13 15:28:00,
2013-05-13 17:34:00,59.7,45.3,29.88,West,270,2.9,10.2,59,0.00,,,0.00,WUHU216HW,2013-05-13 15:34:00,
2013-05-13 17:39:00,60.6,45.1,29.89,NNW,338,7.1,8.9,57,0.00,,,0.00,WUHU216HW,2013-05-13 15:39:00,
2013-05-13 17:44:00,60.6,45.3,29.89,NW,315,2.4,8.9,57,0.00,,,0.00,WUHU216HW,2013-05-13 15:44:00,
2013-05-13 17:49:00,60.4,44.1,29.90,NNW,338,7.6,10.2,55,0.00,,,0.00,WUHU216HW,2013-05-13 15:49:00,
2013-05-13 17:54:00,60.0,43.8,29.91,North,0,6.0,10.2,55,0.00,,,0.00,WUHU216HW,2013-05-13 15:54:00,
2013-05-13 17:59:00,61.1,44.6,29.91,North,0,6.9,8.9,55,0.00,,,0.00,WUHU216HW,2013-05-13 15:59:00,
2013-05-13 18:04:00,61.1,43.8,29.91,NNW,338,6.7,10.0,53,0.00,,,0.00,WUHU216HW,2013-05-13 16:04:00,
2013-05-13 18:09:00,60.9,43.7,29.92,ENE,68,4.6,10.0,53,0.00,,,0.00,WUHU216HW,2013-05-13 16:09:00,
2013-05-13 18:14:00,60.6,42.8,29.92,NNW,338,6.0,9.1,52,0.00,,,0.00,WUHU216HW,2013-05-13 16:14:00,
2013-05-13 19:33:00,57.0,40.0,29.88,West,270,7.3,7.3,53,0.00,,,0.00,WUHU216HW,2013-05-13 17:33:00,
2013-05-13 19:43:00,56.8,40.3,29.89,West,270,6.7,12.0,54,0.00,,,0.00,WUHU216HW,2013-05-13 17:43:00,
2013-05-13 19:48:00,56.4,39.5,29.91,NW,315,6.9,12.0,53,0.00,,,0.00,WUHU216HW,2013-05-13 17:48:00,
2013-05-13 19:53:00,56.3,39.3,29.91,WNW,293,10.7,10.7,53,0.00,,,0.00,WUHU216HW,2013-05-13 17:53:00,
2013-05-13 19:58:00,55.9,39.4,29.93,WNW,293,9.3,11.1,54,0.00,,,0.00,WUHU216HW,2013-05-13 17:58:00,
2013-05-13 20:03:00,55.9,39.4,29.93,West,270,12.7,12.7,54,0.00,,,0.00,WUHU216HW,2013-05-13 18:03:00,
2013-05-13 20:08:00,55.7,39.2,29.94,West,270,8.2,12.7,54,0.00,,,0.00,WUHU216HW,2013-05-13 18:08:00,
2013-05-13 20:13:00,55.2,39.2,29.94,West,270,1.1,10.2,55,0.00,,,0.00,WUHU216HW,2013-05-13 18:13:00,
2013-05-13 20:18:00,55.0,39.0,29.94,NW,315,6.0,8.5,55,0.00,,,0.00,WUHU216HW,2013-05-13 18:18:00,
2013-05-13 20:23:00,54.8,39.3,29.95,West,270,6.0,8.5,56,0.00,,,0.00,WUHU216HW,2013-05-13 18:23:00,
2013-05-13 20:28:00,54.8,39.3,29.94,WNW,293,4.4,8.9,56,0.00,,,0.00,WUHU216HW,2013-05-13 18:28:00,
2013-05-13 20:33:00,54.5,39.5,29.95,NNW,338,3.5,8.9,57,0.00,,,0.00,WUHU216HW,2013-05-13 18:33:00,